Time;durP1;ratioP1;P1;durP2;ratioP2;P2;SDS_P1;SDS_P2;PMS_P1;PMS_P2;Temp;Humidity;BMP_temperature;BMP_pressure;BME280_temperature;BME280_humidity;BME280_pressure;Samples;Min_cycle;Max_cycle;Signal;HPM_P1;HPM_P2
2021/12/01 00:00:50;;;;;;;11.10;8.20;;;2.40;99.90;;;;;;1976116;72;22138;-85
2021/12/01 00:03:42;;;;;;;11.45;7.80;;;2.40;99.90;;;;;;1951234;73;21143;-84
2021/12/01 00:06:33;;;;;;;10.98;7.90;;;2.40;99.90;;;;;;1921240;73;21154;-84
2021/12/01 00:09:25;;;;;;;10.78;7.67;;;2.30;99.90;;;;;;1937376;73;21186;-83
2021/12/01 00:12:35;;;;;;;9.48;7.12;;;2.30;99.90;;;;;;1918457;73;21098;-85
2021/12/01 00:15:27;;;;;;;10.25;7.53;;;2.20;99.90;;;;;;1917504;75;21216;-84
2021/12/01 00:20:56;;;;;;;11.73;7.85;;;2.10;99.90;;;;;;1944481;72;22165;-85
2021/12/01 00:23:48;;;;;;;11.55;7.90;;;2.20;99.90;;;;;;1918997;74;21111;-85
2021/12/01 00:26:39;;;;;;;11.68;8.35;;;2.20;99.90;;;;;;1916842;74;21150;-84
2021/12/01 00:29:31;;;;;;;11.15;7.58;;;2.20;99.90;;;;;;1912932;74;21177;-85
2021/12/01 00:32:41;;;;;;;9.75;6.85;;;2.10;99.90;;;;;;1902732;75;21068;-84
2021/12/01 00:35:32;;;;;;;13.08;7.28;;;2.10;99.90;;;;;;1897262;75;21125;-84
2021/12/01 00:38:26;;;;;;;12.90;7.50;;;2.00;99.90;;;;;;1895208;75;21087;-85
2021/12/01 00:41:20;;;;;;;9.73;6.85;;;2.00;99.90;;;;;;1942234;73;21039;-84
2021/12/01 00:44:12;;;;;;;11.03;7.67;;;2.00;99.90;;;;;;1891412;75;21142;-84
2021/12/01 00:47:06;;;;;;;10.85;7.78;;;2.00;99.90;;;;;;1899997;75;21062;-84
2021/12/01 00:49:58;;;;;;;12.80;7.95;;;2.10;99.90;;;;;;1895159;75;21126;-84
2021/12/01 00:55:30;;;;;;;12.50;8.30;;;2.00;99.90;;;;;;1958210;72;22092;-84
2021/12/01 01:01:01;;;;;;;11.43;7.40;;;2.00;99.90;;;;;;1966960;72;22154;-84
2021/12/01 01:03:53;;;;;;;11.48;7.55;;;2.00;99.90;;;;;;1935811;73;21129;-84
2021/12/01 01:06:45;;;;;;;10.75;7.45;;;1.90;99.90;;;;;;1917547;75;21128;-84
2021/12/01 01:09:38;;;;;;;9.65;7.50;;;1.90;99.90;;;;;;1917456;75;21098;-84
2021/12/01 01:21:32;;;;;;;10.65;7.55;;;2.00;99.90;;;;;;1953968;72;22196;-85
2021/12/01 01:24:23;;;;;;;11.60;7.50;;;2.10;99.90;;;;;;1907994;75;21059;-83
2021/12/01 01:27:15;;;;;;;11.78;7.78;;;2.10;99.90;;;;;;1917544;75;21051;-83
2021/12/01 01:30:09;;;;;;;11.97;7.92;;;2.10;99.90;;;;;;1905355;75;21198;-85
2021/12/01 01:33:19;;;;;;;9.28;6.67;;;2.00;99.90;;;;;;1899727;75;21317;-84
2021/12/01 01:38:59;;;;;;;11.45;7.00;;;2.00;99.90;;;;;;1942503;72;22280;-84
2021/12/01 01:41:54;;;;;;;11.83;7.08;;;1.90;99.90;;;;;;1934889;73;21102;-84
2021/12/01 01:44:45;;;;;;;10.05;6.80;;;1.90;99.90;;;;;;1933070;73;21098;-84
2021/12/01 01:50:37;;;;;;;11.20;7.40;;;1.90;99.90;;;;;;1948978;72;22177;-84
2021/12/01 01:53:30;;;;;;;11.60;6.47;;;1.80;99.90;;;;;;1904812;75;21106;-85
2021/12/01 01:56:23;;;;;;;10.13;6.87;;;1.90;99.90;;;;;;1895804;75;21398;-84
2021/12/01 01:59:14;;;;;;;9.73;6.80;;;1.90;99.90;;;;;;1923385;74;21102;-85
2021/12/01 02:02:24;;;;;;;10.63;6.90;;;1.90;99.90;;;;;;1912768;74;21113;-84
2021/12/01 02:05:16;;;;;;;10.28;7.00;;;1.90;99.90;;;;;;1905204;75;21565;-85
2021/12/01 02:08:16;;;;;;;11.25;7.00;;;1.80;99.90;;;;;;1904970;75;21121;-85
2021/12/01 02:11:05;;;;;;;9.45;6.28;;;1.80;99.90;;;;;;1911503;74;21121;-84
2021/12/01 02:13:58;;;;;;;9.95;6.90;;;1.80;99.90;;;;;;1910622;74;21083;-84
2021/12/01 02:16:50;;;;;;;9.30;6.00;;;1.70;99.90;;;;;;1915843;74;21070;-86
2021/12/01 02:19:42;;;;;;;7.22;5.97;;;1.70;99.90;;;;;;1915376;74;21419;-85
2021/12/01 02:22:35;;;;;;;8.45;5.95;;;1.70;99.90;;;;;;1905169;75;21554;-84
2021/12/01 02:25:27;;;;;;;8.65;6.00;;;1.70;99.90;;;;;;1905114;75;21114;-84
2021/12/01 02:28:18;;;;;;;8.35;5.92;;;1.70;99.90;;;;;;1906902;74;21133;-86
2021/12/01 02:33:50;;;;;;;8.50;6.30;;;1.70;99.90;;;;;;1944950;72;22143;-85
2021/12/01 02:36:42;;;;;;;8.95;6.58;;;1.80;99.90;;;;;;1920908;74;21060;-84
2021/12/01 02:39:38;;;;;;;8.88;6.65;;;1.70;99.90;;;;;;1925864;74;21067;-84
2021/12/01 02:42:31;;;;;;;11.40;7.00;;;1.70;99.90;;;;;;1923961;74;21735;-84
2021/12/01 02:45:41;;;;;;;9.45;5.85;;;1.70;99.90;;;;;;1903558;75;21108;-85
2021/12/01 02:51:12;;;;;;;8.48;5.58;;;1.70;99.90;;;;;;1947788;72;22122;-85
2021/12/01 02:56:58;;;;;;;9.58;6.33;;;1.60;99.90;;;;;;1954226;72;22131;-84
2021/12/01 02:59:51;;;;;;;8.30;5.92;;;1.60;99.90;;;;;;1897530;75;21087;-84
2021/12/01 03:02:43;;;;;;;10.38;7.08;;;1.60;99.90;;;;;;1917632;75;21047;-84
2021/12/01 03:05:36;;;;;;;11.88;6.67;;;1.60;99.90;;;;;;1909403;75;21180;-84
2021/12/01 03:08:47;;;;;;;9.28;6.97;;;1.50;99.90;;;;;;1908214;75;21467;-84
2021/12/01 03:11:39;;;;;;;9.83;6.37;;;1.50;99.90;;;;;;1917749;75;21047;-84
2021/12/01 03:14:31;;;;;;;8.63;6.45;;;1.50;99.90;;;;;;1915666;75;21094;-84
2021/12/01 03:17:23;;;;;;;9.78;6.42;;;1.50;99.90;;;;;;1908714;75;21062;-84
2021/12/01 03:20:20;;;;;;;10.25;6.80;;;1.40;99.90;;;;;;1917368;75;21095;-84
2021/12/01 03:25:49;;;;;;;11.03;6.80;;;1.50;99.90;;;;;;1976111;72;22281;-85
2021/12/01 03:31:19;;;;;;;10.18;7.00;;;1.50;99.90;;;;;;1934427;72;22265;-85
2021/12/01 03:36:48;;;;;;;8.63;5.87;;;1.50;99.90;;;;;;1937199;72;22238;-85
2021/12/01 03:39:40;;;;;;;8.63;5.67;;;1.40;99.90;;;;;;1918845;74;21232;-85
2021/12/01 03:42:32;;;;;;;7.30;5.37;;;1.40;99.90;;;;;;1904540;75;21095;-85
2021/12/01 03:45:23;;;;;;;9.33;5.80;;;1.40;99.90;;;;;;1899517;75;21088;-84
2021/12/01 03:48:33;;;;;;;8.78;5.75;;;1.50;99.90;;;;;;1895037;75;21055;-84
2021/12/01 03:51:25;;;;;;;8.80;6.10;;;1.40;99.90;;;;;;1906826;75;21103;-84
2021/12/01 03:54:18;;;;;;;8.70;6.47;;;1.40;99.90;;;;;;1907005;75;21058;-84
2021/12/01 03:57:12;;;;;;;7.58;5.60;;;1.40;99.90;;;;;;1905341;75;21103;-84
2021/12/01 04:00:05;;;;;;;9.50;5.90;;;1.40;99.90;;;;;;1917570;75;21106;-84
2021/12/01 04:02:59;;;;;;;7.00;5.22;;;1.40;99.90;;;;;;1884612;76;21074;-84
2021/12/01 04:05:51;;;;;;;8.55;6.12;;;1.40;99.90;;;;;;1913056;75;21151;-84
2021/12/01 04:08:43;;;;;;;8.98;5.78;;;1.40;99.90;;;;;;1907082;75;21656;-85
2021/12/01 04:11:36;;;;;;;7.12;5.00;;;1.40;99.90;;;;;;1898865;75;21176;-84
2021/12/01 04:14:28;;;;;;;9.78;5.83;;;1.40;99.90;;;;;;1898738;75;21044;-84
2021/12/01 04:17:20;;;;;;;8.48;5.72;;;1.40;99.90;;;;;;1895464;75;21071;-84
2021/12/01 04:20:13;;;;;;;8.00;5.47;;;1.40;99.90;;;;;;1911001;75;21284;-84
2021/12/01 04:25:44;;;;;;;7.42;5.60;;;1.40;99.90;;;;;;1955886;72;22150;-84
2021/12/01 04:31:15;;;;;;;7.83;5.30;;;1.40;99.90;;;;;;1935097;72;22149;-85
2021/12/01 04:36:48;;;;;;;7.58;5.50;;;1.30;99.90;;;;;;1958279;72;22332;-84
2021/12/01 04:39:40;;;;;;;8.85;5.45;;;1.20;99.90;;;;;;1908407;75;21056;-84
2021/12/01 04:45:14;;;;;;;8.20;5.70;;;1.20;99.90;;;;;;1956208;72;22196;-85
2021/12/01 04:48:07;;;;;;;12.28;6.20;;;1.20;99.90;;;;;;1891406;74;21110;-84
2021/12/01 04:50:58;;;;;;;7.28;5.87;;;1.20;99.90;;;;;;1851457;76;21141;-84
2021/12/01 04:53:51;;;;;;;8.33;5.60;;;1.10;99.90;;;;;;1917647;75;21558;-84
2021/12/01 04:57:03;;;;;;;7.00;5.40;;;1.10;99.90;;;;;;1899234;75;21042;-84
2021/12/01 04:59:55;;;;;;;9.90;5.25;;;1.20;99.90;;;;;;1914512;75;21113;-86
2021/12/01 05:05:25;;;;;;;8.43;5.42;;;1.20;99.90;;;;;;1950126;72;22257;-85
2021/12/01 05:10:55;;;;;;;8.03;5.47;;;1.30;99.90;;;;;;1956690;72;22146;-85
2021/12/01 05:13:47;;;;;;;7.87;5.65;;;1.30;99.90;;;;;;1923874;73;21558;-86
2021/12/01 05:16:39;;;;;;;6.80;4.75;;;1.20;99.90;;;;;;1917389;75;21063;-85
2021/12/01 05:19:31;;;;;;;6.65;4.70;;;1.20;99.90;;;;;;1915457;75;21119;-84
2021/12/01 05:22:43;;;;;;;8.78;4.62;;;1.20;99.90;;;;;;1880305;75;21121;-84
2021/12/01 05:25:34;;;;;;;6.87;4.78;;;1.20;99.90;;;;;;1915971;75;21120;-84
2021/12/01 05:28:26;;;;;;;6.55;5.05;;;1.20;99.90;;;;;;1917336;75;21076;-85
2021/12/01 05:31:18;;;;;;;5.95;4.78;;;1.20;99.90;;;;;;1896456;75;21120;-84
2021/12/01 05:34:09;;;;;;;7.83;4.90;;;1.20;99.90;;;;;;1903512;75;21494;-84
2021/12/01 05:37:01;;;;;;;7.53;4.92;;;1.20;99.90;;;;;;1884933;75;21183;-84
2021/12/01 05:39:52;;;;;;;7.47;4.72;;;1.20;99.90;;;;;;1893419;75;21059;-85
2021/12/01 05:45:23;;;;;;;5.50;3.98;;;1.10;99.90;;;;;;1946398;72;22186;-85
2021/12/01 05:48:14;;;;;;;5.17;3.30;;;1.20;99.90;;;;;;1896711;74;21184;-84
2021/12/01 05:51:06;;;;;;;6.60;3.40;;;1.20;99.90;;;;;;1873022;76;21240;-84
2021/12/01 05:53:58;;;;;;;5.78;3.80;;;1.20;99.90;;;;;;1888843;75;21054;-84
2021/12/01 05:57:09;;;;;;;6.25;3.50;;;1.30;99.90;;;;;;1893227;75;21127;-84
2021/12/01 06:00:00;;;;;;;4.67;3.58;;;1.30;99.90;;;;;;1873018;76;21099;-86
2021/12/01 06:02:53;;;;;;;7.72;3.08;;;1.20;99.90;;;;;;1882098;75;21116;-84
2021/12/01 06:05:45;;;;;;;5.83;3.58;;;1.20;99.90;;;;;;1872700;75;21068;-85
2021/12/01 06:08:38;;;;;;;5.45;3.50;;;1.20;99.90;;;;;;1895585;75;21546;-84
2021/12/01 06:11:30;;;;;;;5.45;3.87;;;1.30;99.90;;;;;;1872725;74;21055;-85
2021/12/01 06:14:21;;;;;;;7.87;4.92;;;1.30;99.90;;;;;;1881115;75;21121;-84
2021/12/01 06:17:14;;;;;;;9.25;5.70;;;1.20;99.90;;;;;;1896707;75;21124;-84
2021/12/01 06:20:08;;;;;;;9.55;6.80;;;1.20;99.90;;;;;;1893685;75;21183;-84
2021/12/01 06:23:01;;;;;;;10.67;5.87;;;1.20;99.90;;;;;;1883190;75;21132;-85
2021/12/01 06:25:53;;;;;;;7.75;5.60;;;1.10;99.90;;;;;;1890197;75;21192;-84
2021/12/01 06:28:44;;;;;;;8.20;5.03;;;1.10;99.90;;;;;;1895852;75;21094;-84
2021/12/01 06:31:36;;;;;;;8.60;5.00;;;1.10;99.90;;;;;;1872145;74;21087;-84
2021/12/01 06:34:46;;;;;;;7.45;4.85;;;1.10;99.90;;;;;;1900575;75;21126;-84
2021/12/01 06:37:56;;;;;;;8.78;5.28;;;1.20;99.90;;;;;;1894164;75;21139;-84
2021/12/01 06:43:28;;;;;;;9.60;6.35;;;1.10;99.90;;;;;;1964578;72;22263;-85
2021/12/01 06:46:20;;;;;;;11.57;7.25;;;1.10;99.90;;;;;;1910040;74;21216;-84
2021/12/01 06:49:11;;;;;;;10.48;7.22;;;1.10;99.90;;;;;;1904590;75;21052;-84
2021/12/01 06:52:03;;;;;;;10.78;6.80;;;1.00;99.90;;;;;;1922615;74;21050;-85
2021/12/01 06:55:13;;;;;;;11.53;6.50;;;1.10;99.90;;;;;;1912200;74;21072;-84
2021/12/01 07:00:45;;;;;;;9.15;6.00;;;1.00;99.90;;;;;;1953168;72;22104;-84
2021/12/01 07:06:17;;;;;;;8.78;6.28;;;1.00;99.90;;;;;;1950680;72;22149;-85
2021/12/01 07:09:11;;;;;;;10.53;6.45;;;1.10;99.90;;;;;;1892149;75;21107;-85
2021/12/01 07:12:02;;;;;;;8.18;5.58;;;1.10;99.90;;;;;;1907023;73;21140;-85
2021/12/01 07:14:54;;;;;;;8.88;5.95;;;1.10;99.90;;;;;;1877980;75;21071;-85
2021/12/01 07:20:45;;;;;;;10.40;5.97;;;1.00;99.90;;;;;;1958078;72;22226;-84
2021/12/01 07:23:37;;;;;;;11.25;7.58;;;1.00;99.90;;;;;;1888200;75;21254;-85
2021/12/01 07:26:29;;;;;;;12.88;7.45;;;1.00;99.90;;;;;;1880318;75;21060;-85
2021/12/01 07:29:20;;;;;;;10.93;7.22;;;1.00;99.90;;;;;;1896745;75;21093;-84
2021/12/01 07:32:30;;;;;;;12.33;7.78;;;1.00;99.90;;;;;;1888109;75;21140;-85
2021/12/01 07:35:21;;;;;;;11.93;7.97;;;0.90;99.90;;;;;;1883821;75;21094;-85
2021/12/01 07:40:56;;;;;;;11.90;7.33;;;1.00;99.90;;;;;;1934981;72;22228;-85
2021/12/01 07:43:48;;;;;;;9.88;6.83;;;1.00;99.90;;;;;;1891060;75;21058;-84
2021/12/01 07:46:39;;;;;;;9.83;7.03;;;1.00;99.90;;;;;;1886876;75;21042;-84
2021/12/01 07:49:32;;;;;;;10.23;7.35;;;1.10;99.90;;;;;;1898133;75;21203;-85
2021/12/01 07:52:43;;;;;;;13.50;7.55;;;1.20;99.90;;;;;;1906454;75;21253;-84
2021/12/01 07:55:46;;;;;;;13.25;7.62;;;1.30;99.90;;;;;;1905673;75;21051;-87
2021/12/01 08:01:19;;;;;;;15.68;8.03;;;1.40;99.90;;;;;;1975851;72;22577;-86
2021/12/01 08:04:13;;;;;;;11.10;7.45;;;1.50;99.90;;;;;;1933330;73;21111;-85
2021/12/01 08:07:05;;;;;;;12.85;7.45;;;1.60;99.90;;;;;;1917133;75;21101;-84
2021/12/01 08:09:56;;;;;;;11.63;7.37;;;1.70;99.90;;;;;;1920644;73;21135;-85
2021/12/01 08:13:06;;;;;;;14.07;7.10;;;1.70;99.90;;;;;;1935507;73;21050;-85
2021/12/01 08:16:01;;;;;;;11.93;6.95;;;1.70;99.90;;;;;;1928521;73;21179;-85
2021/12/01 08:21:32;;;;;;;12.93;7.80;;;1.90;99.90;;;;;;1955168;72;22249;-85
2021/12/01 08:27:03;;;;;;;13.22;7.03;;;2.00;99.90;;;;;;1927030;72;22252;-86
2021/12/01 08:29:56;;;;;;;11.97;7.37;;;2.10;99.90;;;;;;1902505;75;21062;-86
2021/12/01 08:35:31;;;;;;;8.63;6.00;;;2.40;99.90;;;;;;1961579;72;22200;-86
2021/12/01 08:41:04;;;;;;;8.68;6.97;;;2.70;99.90;;;;;;1933541;72;22545;-86
2021/12/01 08:43:56;;;;;;;12.70;8.53;;;2.80;99.90;;;;;;1908884;74;21165;-86
2021/12/01 08:46:49;;;;;;;15.20;8.43;;;2.90;99.90;;;;;;1893282;75;21108;-86
2021/12/01 08:49:42;;;;;;;9.93;6.62;;;2.80;99.90;;;;;;1894469;75;21156;-86
2021/12/01 08:55:31;;;;;;;10.18;6.42;;;2.90;99.90;;;;;;1946053;72;22277;-86
2021/12/01 09:01:05;;;;;;;11.48;7.40;;;3.20;99.90;;;;;;1937429;72;22258;-86
2021/12/01 09:06:35;;;;;;;8.30;6.35;;;3.50;99.90;;;;;;1958066;72;22358;-86
2021/12/01 09:09:28;;;;;;;10.35;6.17;;;3.60;99.90;;;;;;1906416;75;21130;-86
2021/12/01 09:12:20;;;;;;;8.85;5.28;;;3.70;99.90;;;;;;1914518;74;21228;-85
2021/12/01 09:15:13;;;;;;;9.18;7.10;;;3.90;99.90;;;;;;1884462;75;21055;-85
2021/12/01 09:21:07;;;;;;;14.80;7.60;;;4.10;99.90;;;;;;1949928;72;22150;-86
2021/12/01 09:23:58;;;;;;;13.00;6.65;;;4.10;99.90;;;;;;1887638;75;21117;-85
2021/12/01 09:26:51;;;;;;;9.88;6.42;;;4.10;99.90;;;;;;1883600;75;21043;-86
2021/12/01 09:29:43;;;;;;;10.40;7.15;;;4.10;99.90;;;;;;1900230;75;21180;-86
2021/12/01 09:32:53;;;;;;;11.12;6.60;;;4.20;99.90;;;;;;1873951;75;21072;-86
2021/12/01 09:35:48;;;;;;;10.00;6.58;;;4.10;99.90;;;;;;1881722;75;21114;-86
2021/12/01 09:38:40;;;;;;;10.80;6.53;;;4.10;99.90;;;;;;1883877;75;21147;-85
2021/12/01 09:41:32;;;;;;;11.10;6.45;;;4.20;99.90;;;;;;1883271;75;21067;-86
2021/12/01 09:44:25;;;;;;;13.68;6.92;;;4.10;99.90;;;;;;1902707;75;21132;-86
2021/12/01 09:47:19;;;;;;;11.28;7.55;;;4.20;99.90;;;;;;1886743;75;21131;-85
2021/12/01 09:50:11;;;;;;;8.83;6.05;;;4.40;99.90;;;;;;1902173;75;21099;-86
2021/12/01 09:53:04;;;;;;;9.08;5.83;;;4.70;99.90;;;;;;1879875;75;21063;-85
2021/12/01 09:55:56;;;;;;;7.78;5.22;;;4.80;99.90;;;;;;1894623;75;21114;-85
2021/12/01 09:58:48;;;;;;;7.00;4.80;;;5.00;99.90;;;;;;1892759;75;21122;-85
2021/12/01 10:01:40;;;;;;;7.50;4.85;;;5.10;99.90;;;;;;1887895;75;21059;-85
2021/12/01 10:04:32;;;;;;;7.35;5.00;;;5.30;99.90;;;;;;1883048;75;21056;-86
2021/12/01 10:07:26;;;;;;;9.45;6.62;;;5.40;99.90;;;;;;1900460;75;21216;-85
2021/12/01 10:10:41;;;;;;;14.07;7.65;;;5.50;99.90;;;;;;1894439;75;21557;-86
2021/12/01 10:16:37;;;;;;;13.75;7.62;;;5.60;99.90;;;;;;1947240;72;22139;-86
2021/12/01 10:19:29;;;;;;;8.35;5.60;;;5.60;99.90;;;;;;1880449;75;21081;-86
2021/12/01 10:22:21;;;;;;;7.65;5.65;;;5.70;99.90;;;;;;1894524;75;21100;-85
2021/12/01 10:25:29;;;;;;;6.15;4.80;;;5.80;99.90;;;;;;1904389;75;21060;-85
2021/12/01 10:31:36;;;;;;;12.25;7.15;;;5.90;99.90;;;;;;1935660;72;27945;-86
2021/12/01 10:34:31;;;;;;;11.68;6.22;;;6.10;99.90;;;;;;1897233;75;21123;-85
2021/12/01 10:37:26;;;;;;;11.73;6.25;;;6.10;99.90;;;;;;1913061;74;21618;-86
2021/12/01 10:43:00;;;;;;;14.90;5.95;;;6.00;99.90;;;;;;1931498;72;22653;-86
2021/12/01 10:45:51;;;;;;;9.55;5.65;;;6.10;99.90;;;;;;1893417;75;21145;-87
2021/12/01 10:51:36;;;;;;;7.22;5.62;;;6.10;99.90;;;;;;1941865;72;22815;-86
2021/12/01 10:54:27;;;;;;;10.72;6.20;;;6.00;99.90;;;;;;1912590;74;21048;-85
2021/12/01 10:57:21;;;;;;;15.48;6.70;;;6.10;99.90;;;;;;1915097;74;21151;-86
2021/12/01 11:00:20;;;;;;;15.03;7.15;;;6.00;99.90;;;;;;1918698;74;21164;-86
2021/12/01 11:06:14;;;;;;;20.40;8.78;;;6.20;99.90;;;;;;1952835;72;22136;-86
2021/12/01 11:09:07;;;;;;;11.78;7.80;;;6.30;99.90;;;;;;1911127;74;21587;-85
2021/12/01 11:12:02;;;;;;;14.28;10.10;;;6.40;99.90;;;;;;1908908;74;21099;-86
2021/12/01 11:14:53;;;;;;;13.68;8.33;;;6.50;99.90;;;;;;1897410;75;21212;-85
2021/12/01 11:20:45;;;;;;;44.00;9.80;;;6.40;99.90;;;;;;1944383;72;22234;-86
2021/12/01 11:23:37;;;;;;;23.62;9.00;;;6.40;99.90;;;;;;1906498;75;21176;-86
2021/12/01 11:26:31;;;;;;;15.70;7.87;;;6.40;99.90;;;;;;1907779;75;22260;-85
2021/12/01 11:32:02;;;;;;;14.20;9.15;;;6.40;99.90;;;;;;1929386;72;22709;-86
2021/12/01 11:34:55;;;;;;;13.60;8.05;;;6.40;99.90;;;;;;1907084;74;21104;-86
2021/12/01 11:37:54;;;;;;;14.28;8.10;;;6.40;99.90;;;;;;1904463;75;21095;-85
2021/12/01 11:40:43;;;;;;;14.98;7.67;;;6.50;99.90;;;;;;1896563;75;21156;-86
2021/12/01 11:46:34;;;;;;;11.30;7.10;;;6.50;99.90;;;;;;1928688;72;22205;-86
2021/12/01 11:49:29;;;;;;;10.45;6.78;;;6.50;99.90;;;;;;1906501;75;21143;-86
2021/12/01 11:52:27;;;;;;;14.80;7.80;;;6.50;99.90;;;;;;1906065;75;21051;-86
2021/12/01 11:55:18;;;;;;;13.03;8.03;;;6.30;99.90;;;;;;1890615;75;21140;-86
2021/12/01 12:01:43;;;;;;;12.10;8.73;;;6.20;99.90;;;;;;1963310;72;22216;-86
2021/12/01 12:04:47;;;;;;;14.90;9.78;;;6.20;99.90;;;;;;1915397;74;21150;-86
2021/12/01 12:07:43;;;;;;;15.78;8.83;;;6.20;99.90;;;;;;1904679;75;21142;-86
2021/12/01 12:10:35;;;;;;;15.15;8.75;;;6.10;99.90;;;;;;1913289;74;21164;-85
2021/12/01 12:14:02;;;;;;;13.75;8.35;;;6.10;99.90;;;;;;1915125;74;21081;-86
2021/12/01 12:17:07;;;;;;;12.05;8.45;;;6.10;99.90;;;;;;1910056;74;21103;-86
2021/12/01 12:20:04;;;;;;;13.78;9.08;;;6.10;99.90;;;;;;1932163;74;21178;-86
2021/12/01 12:25:42;;;;;;;13.80;8.40;;;6.00;99.90;;;;;;1946201;72;22311;-86
2021/12/01 12:28:38;;;;;;;11.63;7.22;;;6.00;99.90;;;;;;1912849;75;21168;-86
2021/12/01 12:31:31;;;;;;;10.43;7.20;;;6.00;99.90;;;;;;1906596;75;21160;-86
2021/12/01 12:37:05;;;;;;;8.83;6.00;;;5.90;99.90;;;;;;1945924;72;22272;-86
2021/12/01 12:39:56;;;;;;;12.20;6.60;;;5.80;99.90;;;;;;1943658;73;21102;-86
2021/12/01 12:46:04;;;;;;;11.18;7.05;;;5.60;99.90;;;;;;1946301;72;22208;-86
2021/12/01 12:51:38;;;;;;;12.73;7.55;;;5.50;99.90;;;;;;1976135;72;22123;-86
2021/12/01 12:54:28;;;;;;;12.07;8.43;;;5.40;99.90;;;;;;1931162;73;21122;-85
2021/12/01 12:57:19;;;;;;;11.28;7.97;;;5.40;99.90;;;;;;1902742;74;21052;-85
2021/12/01 13:00:22;;;;;;;9.98;7.28;;;5.30;99.90;;;;;;1912947;74;21180;-85
2021/12/01 13:06:26;;;;;;;10.68;7.30;;;5.40;99.90;;;;;;1963030;72;22166;-86
2021/12/01 13:12:01;;;;;;;11.20;7.00;;;5.30;99.90;;;;;;1954766;72;22108;-86
2021/12/01 13:14:52;;;;;;;12.63;7.83;;;5.20;99.90;;;;;;1873307;75;21063;-86
2021/12/01 13:17:48;;;;;;;11.95;7.92;;;5.30;99.90;;;;;;1886630;75;21129;-86
2021/12/01 13:20:43;;;;;;;12.15;8.05;;;5.30;99.90;;;;;;1887172;75;21099;-85
2021/12/01 13:24:03;;;;;;;13.53;8.43;;;5.30;99.90;;;;;;1886086;75;21177;-85
2021/12/01 13:29:37;;;;;;;14.10;8.85;;;5.10;99.90;;;;;;1950982;72;22156;-86
2021/12/01 13:32:30;;;;;;;13.90;8.85;;;5.00;99.90;;;;;;1917450;75;21120;-86
2021/12/01 13:35:32;;;;;;;16.25;9.68;;;4.90;99.90;;;;;;1922641;73;21100;-86
2021/12/01 13:41:12;;;;;;;13.13;8.95;;;4.80;99.90;;;;;;1950377;72;22169;-86
2021/12/01 13:47:04;;;;;;;11.95;8.73;;;4.70;99.90;;;;;;1975892;72;22220;-85
2021/12/01 13:49:59;;;;;;;10.88;8.18;;;4.70;99.90;;;;;;1917416;75;21190;-86
2021/12/01 13:55:35;;;;;;;13.50;9.50;;;4.70;99.90;;;;;;1946227;72;22248;-86
2021/12/01 14:01:06;;;;;;;16.12;9.48;;;4.70;99.90;;;;;;1952129;72;22276;-86
2021/12/01 14:04:02;;;;;;;11.57;9.78;;;4.70;99.90;;;;;;1896559;74;21098;-87
2021/12/01 14:06:57;;;;;;;19.82;9.28;;;4.60;99.90;;;;;;1898073;74;21144;-87
2021/12/01 14:10:15;;;;;;;14.20;9.28;;;4.70;99.90;;;;;;1873876;76;21133;-88
2021/12/01 14:13:28;;;;;;;12.60;9.08;;;4.70;99.90;;;;;;1906622;75;21116;-87
2021/12/01 14:16:23;;;;;;;12.30;9.00;;;4.60;99.90;;;;;;1878105;76;21131;-86
2021/12/01 14:21:54;;;;;;;13.80;9.88;;;4.70;99.90;;;;;;1952364;72;22138;-85
2021/12/01 14:27:33;;;;;;;12.75;9.68;;;4.60;99.90;;;;;;1949721;72;22286;-85
2021/12/01 14:30:24;;;;;;;14.50;9.63;;;4.50;99.90;;;;;;1904776;75;21103;-85
2021/12/01 14:36:04;;;;;;;18.17;12.03;;;4.60;99.90;;;;;;1955274;72;22174;-86
2021/12/01 14:41:35;;;;;;;15.20;11.60;;;4.50;99.90;;;;;;1933317;72;22244;-86
2021/12/01 14:44:28;;;;;;;14.38;11.70;;;4.50;99.90;;;;;;1916991;74;21098;-85
2021/12/01 14:50:05;;;;;;;19.23;12.50;;;4.50;99.90;;;;;;1941476;72;22158;-86
2021/12/01 14:55:39;;;;;;;18.57;11.97;;;4.50;99.90;;;;;;1953373;72;22135;-86
2021/12/01 15:01:14;;;;;;;15.60;11.05;;;4.50;99.90;;;;;;1949026;72;22189;-86
2021/12/01 15:04:12;;;;;;;15.53;12.37;;;4.50;99.90;;;;;;1887205;75;21140;-87
2021/12/01 15:07:05;;;;;;;16.05;12.03;;;4.50;99.90;;;;;;1883382;75;21059;-87
2021/12/01 15:09:58;;;;;;;14.28;10.68;;;4.50;99.90;;;;;;1888315;75;21064;-87
2021/12/01 15:13:12;;;;;;;14.80;10.88;;;4.40;99.90;;;;;;1866651;76;21118;-86
2021/12/01 15:16:06;;;;;;;19.67;12.28;;;4.40;99.90;;;;;;1885392;75;21350;-86
2021/12/01 15:19:00;;;;;;;15.45;11.63;;;4.40;99.90;;;;;;1888773;75;21055;-86
2021/12/01 15:21:52;;;;;;;15.88;11.50;;;4.50;99.90;;;;;;1883443;75;21205;-86
2021/12/01 15:24:44;;;;;;;13.10;10.03;;;4.50;99.90;;;;;;1904721;75;21543;-85
2021/12/01 15:27:36;;;;;;;13.98;9.95;;;4.50;99.90;;;;;;1902460;75;21627;-85
2021/12/01 15:30:29;;;;;;;13.30;10.23;;;4.60;99.90;;;;;;1892848;75;21047;-85
2021/12/01 15:36:03;;;;;;;15.68;11.18;;;4.60;99.90;;;;;;1953414;72;22119;-86
2021/12/01 15:41:33;;;;;;;13.13;10.65;;;4.50;99.90;;;;;;1931280;72;22190;-86
2021/12/01 15:44:25;;;;;;;16.60;11.33;;;4.50;99.90;;;;;;1904261;75;21136;-86
2021/12/01 15:47:21;;;;;;;16.65;11.25;;;4.40;99.90;;;;;;1886943;75;21208;-86
2021/12/01 15:53:01;;;;;;;13.80;11.10;;;4.50;99.90;;;;;;1940628;72;22230;-86
2021/12/01 15:55:55;;;;;;;12.95;10.58;;;4.50;99.90;;;;;;1894633;75;21067;-85
2021/12/01 16:01:33;;;;;;;14.65;10.38;;;4.60;99.90;;;;;;1954549;72;22107;-86
2021/12/01 16:04:26;;;;;;;18.70;14.00;;;4.60;99.90;;;;;;1911943;74;21121;-86
2021/12/01 16:07:17;;;;;;;14.07;10.95;;;4.60;99.90;;;;;;1844265;77;21270;-86
2021/12/01 16:10:10;;;;;;;15.18;11.95;;;4.60;99.90;;;;;;1914809;75;21557;-88
2021/12/01 16:15:58;;;;;;;15.98;10.93;;;4.60;99.90;;;;;;1948579;72;22180;-85
2021/12/01 16:18:50;;;;;;;15.90;11.08;;;4.60;99.90;;;;;;1931302;73;21095;-87
2021/12/01 16:21:44;;;;;;;13.98;10.68;;;4.60;99.90;;;;;;1861843;76;21133;-86
2021/12/01 16:27:13;;;;;;;16.23;10.38;;;4.80;99.90;;;;;;1949901;72;22192;-86
2021/12/01 16:32:49;;;;;;;13.80;10.38;;;4.80;99.90;;;;;;1946792;72;22192;-85
2021/12/01 16:38:24;;;;;;;15.48;9.28;;;4.70;99.90;;;;;;1943476;72;22165;-86
2021/12/01 16:41:15;;;;;;;14.80;10.93;;;4.70;99.90;;;;;;1886820;75;21108;-85
2021/12/01 16:44:07;;;;;;;14.47;9.93;;;4.70;99.90;;;;;;1917187;75;21075;-85
2021/12/01 16:47:00;;;;;;;13.83;10.65;;;4.70;99.90;;;;;;1898737;75;21102;-85
2021/12/01 16:50:12;;;;;;;15.10;11.15;;;4.80;99.90;;;;;;1914882;75;21564;-86
2021/12/01 16:53:05;;;;;;;14.25;9.98;;;4.80;99.90;;;;;;1907777;74;21114;-87
2021/12/01 16:55:57;;;;;;;16.65;11.88;;;4.80;99.90;;;;;;1894099;75;21681;-87
2021/12/01 17:01:34;;;;;;;14.15;11.25;;;4.60;99.90;;;;;;1954860;72;22154;-86
2021/12/01 17:04:30;;;;;;;15.08;11.20;;;4.50;99.90;;;;;;1895330;74;21090;-86
2021/12/01 17:07:26;;;;;;;17.20;12.00;;;4.40;99.90;;;;;;1894836;75;21187;-85
2021/12/01 17:10:19;;;;;;;16.87;11.68;;;4.40;99.90;;;;;;1917828;74;21059;-87
2021/12/01 17:16:10;;;;;;;16.80;12.82;;;4.40;99.90;;;;;;1954968;72;22321;-87
2021/12/01 17:21:39;;;;;;;16.75;12.93;;;4.40;99.90;;;;;;1952817;72;22154;-86
2021/12/01 17:27:21;;;;;;;15.78;12.30;;;4.50;99.90;;;;;;1946182;72;22292;-86
2021/12/01 17:32:47;;;;;;;16.70;13.25;;;4.60;99.90;;;;;;1975792;72;22273;-87
2021/12/01 17:38:19;;;;;;;18.80;13.40;;;4.70;99.90;;;;;;1928704;72;22185;-86
2021/12/01 17:46:47;;;;;;;21.85;18.60;;;4.70;99.90;;;;;;1938714;72;28081;-88
2021/12/01 17:49:38;;;;;;;19.05;14.50;;;4.60;99.90;;;;;;1905074;74;21121;-86
2021/12/01 17:52:30;;;;;;;18.85;14.95;;;4.60;99.90;;;;;;1904592;74;21128;-87
2021/12/01 17:55:23;;;;;;;17.98;13.38;;;4.60;99.90;;;;;;1920874;74;21093;-86
2021/12/01 18:01:14;;;;;;;21.57;14.65;;;4.60;99.90;;;;;;1942550;72;22173;-86
2021/12/01 18:04:06;;;;;;;20.50;15.03;;;4.50;99.90;;;;;;1917435;75;21114;-86
2021/12/01 18:07:00;;;;;;;22.45;16.37;;;4.50;99.90;;;;;;1917256;75;21109;-87
2021/12/01 18:09:52;;;;;;;23.87;16.05;;;4.50;99.90;;;;;;1910991;73;21180;-87
2021/12/01 18:13:02;;;;;;;22.58;15.83;;;4.50;99.90;;;;;;1917468;75;21107;-86
2021/12/01 18:15:53;;;;;;;22.07;15.72;;;4.50;99.90;;;;;;1917450;75;21107;-87
2021/12/01 18:18:47;;;;;;;21.80;15.18;;;4.50;99.90;;;;;;1923194;73;21157;-86
2021/12/01 18:21:38;;;;;;;23.57;15.90;;;4.50;99.90;;;;;;1950223;73;21117;-87
2021/12/01 18:27:13;;;;;;;24.35;16.00;;;4.40;99.90;;;;;;1941392;72;22154;-87
2021/12/01 18:30:06;;;;;;;21.42;15.48;;;4.50;99.90;;;;;;1868503;76;21146;-87
2021/12/01 18:33:02;;;;;;;21.48;15.03;;;4.50;99.90;;;;;;1921642;74;21107;-87
2021/12/01 18:35:52;;;;;;;24.87;16.12;;;4.50;99.90;;;;;;1913253;74;21167;-87
2021/12/01 18:41:40;;;;;;;18.85;13.45;;;4.40;99.90;;;;;;1937627;72;22248;-87
2021/12/01 18:44:34;;;;;;;17.73;13.58;;;4.40;99.90;;;;;;1905021;75;21094;-86
2021/12/01 18:47:25;;;;;;;18.25;13.70;;;4.30;99.90;;;;;;1895796;75;21096;-87
2021/12/01 18:50:17;;;;;;;21.68;13.60;;;4.30;99.90;;;;;;1914081;75;21624;-86
2021/12/01 18:53:27;;;;;;;17.48;13.50;;;4.20;99.90;;;;;;1898654;75;21675;-87